createdAt,value
2024-05-09T00:00:56.835Z,92378.72
2024-05-09T00:04:01.003Z,92373.88
2024-05-09T00:07:05.075Z,92367.78
2024-05-09T00:10:14.704Z,92365.72
2024-05-09T00:13:26.127Z,92354.28
2024-05-09T00:16:32.925Z,92353.94
2024-05-09T00:19:36.825Z,92355.91
2024-05-09T00:22:40.746Z,92341.69
2024-05-09T00:25:46.155Z,92331.47
2024-05-09T00:28:50.158Z,92324.63
2024-05-09T00:31:53.839Z,92317.34
2024-05-09T00:34:57.944Z,92314.91
2024-05-09T00:38:02.316Z,92309.09
2024-05-09T00:41:06.124Z,92312.72
2024-05-09T00:44:10.064Z,92311.91
2024-05-09T00:47:13.870Z,92316.81
2024-05-09T00:50:22.764Z,92315.50
2024-05-09T00:53:34.891Z,92299.94
2024-05-09T00:56:38.855Z,92293.25
2024-05-09T00:59:42.641Z,92278.50
2024-05-09T01:02:46.215Z,92267.00
2024-05-09T01:05:49.914Z,92273.28
2024-05-09T01:08:53.656Z,92257.88
2024-05-09T01:11:57.389Z,92254.41
2024-05-09T01:15:00.902Z,92249.66
2024-05-09T01:18:13.816Z,92245.09
2024-05-09T01:21:17.896Z,92232.03
2024-05-09T01:24:21.389Z,92218.50
2024-05-09T01:27:25.311Z,92208.69
2024-05-09T01:30:34.413Z,92200.75
2024-05-09T01:33:40.698Z,92185.19
2024-05-09T01:36:44.214Z,92182.84
2024-05-09T01:39:47.756Z,92181.47
2024-05-09T01:42:51.362Z,92173.38
2024-05-09T01:45:55.082Z,92157.13
2024-05-09T01:48:58.656Z,92145.50
2024-05-09T01:52:02.195Z,92150.47
2024-05-09T01:55:10.349Z,92143.47
2024-05-09T01:58:14.938Z,92141.34
2024-05-09T02:01:18.702Z,92130.94
2024-05-09T02:04:22.480Z,92129.09
2024-05-09T02:07:26.608Z,92117.03
2024-05-09T02:10:32.796Z,92102.13
2024-05-09T02:13:37.107Z,92097.84
2024-05-09T02:16:40.688Z,92095.75
2024-05-09T02:19:44.272Z,92091.97
2024-05-09T02:22:47.773Z,92081.34
2024-05-09T02:25:51.258Z,92086.59
2024-05-09T02:28:54.769Z,92077.63
2024-05-09T02:31:58.343Z,92068.78
2024-05-09T02:35:02.091Z,92075.06
2024-05-09T02:38:06.459Z,92067.72
2024-05-09T02:41:11.214Z,92057.19
2024-05-09T02:44:14.780Z,92055.06
2024-05-09T02:47:18.451Z,92043.41
2024-05-09T02:50:29.856Z,92035.28
2024-05-09T02:53:40.767Z,92043.53
2024-05-09T02:56:44.542Z,92030.19
2024-05-09T02:59:48.769Z,92028.91
2024-05-09T03:02:52.637Z,92036.53
2024-05-09T03:05:56.259Z,92025.88
2024-05-09T03:08:59.713Z,92016.25
2024-05-09T03:12:03.491Z,92027.25
2024-05-09T03:15:07.497Z,92017.25
2024-05-09T03:18:12.325Z,92010.69
2024-05-09T03:21:16.341Z,92006.13
2024-05-09T03:24:19.809Z,92002.75
2024-05-09T03:27:25.549Z,91997.75
2024-05-09T03:30:36.769Z,91986.16
2024-05-09T03:33:45.392Z,91981.28
2024-05-09T03:36:49.083Z,91975.44
2024-05-09T03:39:52.539Z,91972.56
2024-05-09T03:42:56.080Z,91981.47
2024-05-09T03:45:59.641Z,91963.22
2024-05-09T03:49:03.264Z,91964.69
2024-05-09T03:52:07.279Z,91958.66
2024-05-09T03:55:10.815Z,91947.19
2024-05-09T03:58:15.138Z,91948.94
2024-05-09T04:01:18.862Z,91940.44
2024-05-09T04:04:22.489Z,91944.38
2024-05-09T04:07:26.059Z,91932.72
2024-05-09T04:10:33.881Z,91929.25
2024-05-09T04:13:38.461Z,91911.28
2024-05-09T04:16:42.068Z,91916.16
2024-05-09T04:19:45.655Z,91897.41
2024-05-09T04:22:49.686Z,91897.75
2024-05-09T04:25:53.435Z,91885.63
2024-05-09T04:28:57.111Z,91876.19
2024-05-09T04:32:00.817Z,91872.56
2024-05-09T04:35:04.593Z,91864.66
2024-05-09T04:38:09.083Z,91863.38
2024-05-09T04:41:12.592Z,91860.69
2024-05-09T04:44:16.386Z,91854.81
2024-05-09T04:47:20.238Z,91859.84
2024-05-09T04:50:33.506Z,91849.44
2024-05-09T04:53:41.295Z,91844.34
2024-05-09T04:56:44.953Z,91833.16
2024-05-09T04:59:48.390Z,91825.38
2024-05-09T05:02:52.201Z,91835.31
2024-05-09T05:05:57.419Z,91817.97
2024-05-09T05:09:02.301Z,91807.25
2024-05-09T05:12:32.306Z,91801.41
2024-05-09T05:15:37.531Z,91796.44
2024-05-09T05:18:45.119Z,91794.94
2024-05-09T05:21:48.765Z,91791.63
2024-05-09T05:24:52.521Z,91782.84
2024-05-09T05:27:56.363Z,91780.09
2024-05-09T05:30:59.771Z,91769.84
2024-05-09T05:34:03.414Z,91761.19
2024-05-09T05:37:07.063Z,91754.06
2024-05-09T05:40:14.641Z,91747.56
2024-05-09T05:43:21.271Z,91734.41
2024-05-09T05:46:24.931Z,91729.06
2024-05-09T05:49:28.699Z,91723.44
2024-05-09T05:52:32.245Z,91708.34
2024-05-09T05:55:36.154Z,91702.84
2024-05-09T05:58:40.027Z,91696.66
2024-05-09T06:01:43.609Z,91688.41
2024-05-09T06:04:47.185Z,91690.09
2024-05-09T06:07:50.736Z,91680.91
2024-05-09T06:10:54.354Z,91674.94
2024-05-09T06:13:58.007Z,91670.97
2024-05-09T06:17:01.729Z,91659.91
2024-05-09T06:20:11.046Z,91650.78
2024-05-09T06:23:16.894Z,91648.63
2024-05-09T06:26:20.491Z,91645.06
2024-05-09T06:29:24.178Z,91637.66
2024-05-09T06:32:28.356Z,91632.50
2024-05-09T06:35:32.034Z,91623.72
2024-05-09T06:38:35.653Z,91617.63
2024-05-09T06:41:39.346Z,91616.47
2024-05-09T06:44:43.025Z,91613.19
2024-05-09T06:47:46.774Z,91604.41
2024-05-09T06:50:51.003Z,91593.75
2024-05-09T06:53:55.692Z,91588.88
2024-05-09T06:56:59.301Z,91587.34
2024-05-09T07:00:03.726Z,91581.03
2024-05-09T07:03:11.101Z,91573.13
2024-05-09T07:06:15.982Z,91563.75
2024-05-09T07:09:20.781Z,91562.50
2024-05-09T07:12:25.567Z,91562.75
2024-05-09T07:15:29.271Z,91559.84
2024-05-09T07:18:32.954Z,91543.75
2024-05-09T07:21:36.790Z,91534.63
2024-05-09T07:24:40.224Z,91533.63
2024-05-09T07:27:43.681Z,91534.84
2024-05-09T07:30:47.195Z,91524.69
2024-05-09T07:33:51.051Z,91522.19
2024-05-09T07:36:54.595Z,91514.25
2024-05-09T07:39:58.177Z,91507.41
2024-05-09T07:43:01.678Z,91497.78
2024-05-09T07:47:04.495Z,91488.28
2024-05-09T07:53:33.279Z,91476.31
2024-05-09T07:56:00.860Z,91474.72
2024-05-09T07:59:04.715Z,91462.88
2024-05-09T08:02:08.679Z,91456.13
2024-05-09T08:05:12.499Z,91457.41
2024-05-09T08:08:16.233Z,91455.09
2024-05-09T08:11:21.241Z,91455.28
2024-05-09T08:14:24.785Z,91456.53
2024-05-09T08:17:28.660Z,91445.53
2024-05-09T08:20:35.244Z,91436.09
2024-05-09T08:23:40.310Z,91429.47
2024-05-09T08:26:43.775Z,91433.91
2024-05-09T08:29:47.750Z,91424.06
2024-05-09T08:32:51.515Z,91418.34
2024-05-09T08:35:55.180Z,91411.97
2024-05-09T08:38:58.727Z,91426.28
2024-05-09T08:42:03.303Z,91417.91
2024-05-09T08:45:07.536Z,91410.34
2024-05-09T08:48:11.232Z,91419.91
2024-05-09T08:51:15.439Z,91414.22
2024-05-09T08:54:20.564Z,91421.31
2024-05-09T08:57:24.379Z,91410.59
2024-05-09T09:00:36.327Z,91410.63
2024-05-09T09:03:42.320Z,91405.25
2024-05-09T09:06:46.142Z,91403.81
2024-05-09T09:09:51.371Z,91414.97
2024-05-09T09:13:01.346Z,91406.41
2024-05-09T09:16:05.109Z,91413.66
2024-05-09T09:19:09.020Z,91406.50
2024-05-09T09:22:13.137Z,91405.53
2024-05-09T09:25:17.004Z,91401.34
2024-05-09T09:28:24.294Z,91405.09
2024-05-09T09:31:27.915Z,91404.38
2024-05-09T09:34:35.054Z,91415.44
2024-05-09T09:37:39.547Z,91412.91
2024-05-09T09:40:49.639Z,91409.06
2024-05-09T09:43:55.431Z,91422.38
2024-05-09T09:47:03.987Z,91421.22
2024-05-09T09:50:14.225Z,91418.84
2024-05-09T09:53:20.951Z,91421.09
2024-05-09T09:56:26.326Z,91420.50
2024-05-09T09:59:31.157Z,91423.09
2024-05-09T10:02:34.712Z,91421.47
2024-05-09T10:05:39.877Z,91409.94
2024-05-09T10:08:47.692Z,91408.72
2024-05-09T10:11:59.675Z,91410.16
2024-05-09T10:15:10.924Z,91412.38
2024-05-09T10:18:15.690Z,91416.78
2024-05-09T10:21:20.453Z,91418.69
2024-05-09T10:24:24.058Z,91406.94
2024-05-09T10:27:31.316Z,91418.53
2024-05-09T10:30:36.353Z,91416.63
2024-05-09T10:33:49.192Z,91414.09
2024-05-09T10:36:56.804Z,91416.75
2024-05-09T10:40:01.306Z,91416.09
2024-05-09T10:43:06.738Z,91412.00
2024-05-09T10:46:12.089Z,91423.94
2024-05-09T10:49:16.421Z,91421.69
2024-05-09T10:52:24.341Z,91428.56
2024-05-09T10:55:28.422Z,91421.78
2024-05-09T10:58:32.817Z,91420.94
2024-05-09T11:01:37.581Z,91428.28
2024-05-09T11:04:41.539Z,91429.19
2024-05-09T11:07:45.496Z,91436.81
2024-05-09T11:10:50.719Z,91428.38
2024-05-09T11:13:55.262Z,91430.06
2024-05-09T11:17:01.111Z,91432.72
2024-05-09T11:20:13.314Z,91430.06
2024-05-09T11:23:22.694Z,91433.78
2024-05-09T11:26:30.078Z,91430.00
2024-05-09T11:29:41.074Z,91438.28
2024-05-09T11:32:45.123Z,91436.03
2024-05-09T11:35:48.982Z,91431.66
2024-05-09T11:38:52.700Z,91442.09
2024-05-09T11:41:56.197Z,91442.38
2024-05-09T11:45:00.038Z,91438.13
2024-05-09T11:48:04.975Z,91435.75
2024-05-09T11:51:08.944Z,91433.63
2024-05-09T11:54:12.920Z,91431.41
2024-05-09T11:57:16.841Z,91433.84
2024-05-09T12:00:29.556Z,91432.66
2024-05-09T12:03:40.528Z,91439.59
2024-05-09T12:06:46.347Z,91440.16
2024-05-09T12:09:49.980Z,91434.19
2024-05-09T12:12:54.838Z,91439.72
2024-05-09T12:15:58.536Z,91433.06
2024-05-09T12:19:02.514Z,91435.22
2024-05-09T12:22:06.249Z,91442.72
2024-05-09T12:25:10.255Z,91444.72
2024-05-09T12:28:13.796Z,91445.75
2024-05-09T12:31:17.548Z,91445.59
2024-05-09T12:34:21.433Z,91454.97
2024-05-09T12:37:25.115Z,91460.28
2024-05-09T12:40:35.647Z,91459.63
2024-05-09T12:43:41.981Z,91463.41
2024-05-09T12:46:46.606Z,91466.44
2024-05-09T12:49:50.194Z,91461.75
2024-05-09T12:52:53.709Z,91453.00
2024-05-09T12:56:01.823Z,91453.00
2024-05-09T12:59:06.870Z,91460.53
2024-05-09T13:02:10.751Z,91453.66
2024-05-09T13:05:14.998Z,91455.28
2024-05-09T13:08:18.823Z,91460.84
2024-05-09T13:11:22.625Z,91452.38
2024-05-09T13:14:26.612Z,91454.53
2024-05-09T13:17:30.656Z,91452.63
2024-05-09T13:20:35.919Z,91445.44
2024-05-09T13:23:42.062Z,91443.94
2024-05-09T13:26:45.686Z,91446.56
2024-05-09T13:29:49.198Z,91444.06
2024-05-09T13:32:53.434Z,91448.31
2024-05-09T13:35:57.845Z,91448.31
2024-05-09T13:39:01.586Z,91440.25
2024-05-09T13:42:05.387Z,91449.69
2024-05-09T13:45:09.566Z,91446.28
2024-05-09T13:48:13.497Z,91444.19
2024-05-09T13:51:17.125Z,91445.06
2024-05-09T13:54:22.756Z,91446.31
2024-05-09T13:57:27.418Z,91433.97
2024-05-09T14:00:42.546Z,91426.94
2024-05-09T14:03:51.430Z,91431.63
2024-05-09T14:06:55.155Z,91433.78
2024-05-09T14:09:58.749Z,91431.66
2024-05-09T14:13:02.600Z,91441.50
2024-05-09T14:16:07.283Z,91449.22
2024-05-09T14:19:11.247Z,91455.28
2024-05-09T14:22:14.924Z,91448.72
2024-05-09T14:25:18.823Z,91444.22
2024-05-09T14:28:26.919Z,91444.97
2024-05-09T14:31:30.566Z,91439.13
2024-05-09T14:34:34.199Z,91443.97
2024-05-09T14:37:39.675Z,91441.91
2024-05-09T14:40:44.261Z,91444.34
2024-05-09T14:43:47.597Z,91450.53
2024-05-09T14:46:51.276Z,91459.25
2024-05-09T14:49:55.022Z,91467.19
2024-05-09T14:52:58.641Z,91471.59
2024-05-09T14:56:02.339Z,91476.78
2024-05-09T14:59:10.109Z,91474.97
2024-05-09T15:02:13.756Z,91463.75
2024-05-09T15:05:17.467Z,91470.53
2024-05-09T15:08:21.183Z,91472.88
2024-05-09T15:11:25.227Z,91488.78
2024-05-09T15:14:28.706Z,91493.22
2024-05-09T15:17:33.004Z,91492.81
2024-05-09T15:20:37.772Z,91494.28
2024-05-09T15:23:41.560Z,91495.19
2024-05-09T15:26:45.189Z,91500.91
2024-05-09T15:29:48.804Z,91500.00
2024-05-09T15:32:52.691Z,91508.19
2024-05-09T15:35:56.297Z,91508.03
2024-05-09T15:39:01.312Z,91514.41
2024-05-09T15:42:05.158Z,91512.97
2024-05-09T15:45:08.845Z,91520.72
2024-05-09T15:48:12.577Z,91511.84
2024-05-09T15:51:16.230Z,91511.38
2024-05-09T15:54:21.085Z,91510.31
2024-05-09T15:57:25.684Z,91512.78
2024-05-09T16:00:36.941Z,91502.84
2024-05-09T16:03:44.122Z,91502.75
2024-05-09T16:06:48.939Z,91492.50
2024-05-09T16:09:52.834Z,91496.41
2024-05-09T16:12:56.451Z,91496.31
2024-05-09T16:16:00.262Z,91490.38
2024-05-09T16:19:03.813Z,91493.47
2024-05-09T16:22:07.333Z,91487.31
2024-05-09T16:25:10.978Z,91482.25
2024-05-09T16:28:14.957Z,91467.66
2024-05-09T16:31:18.632Z,91458.28
2024-05-09T16:34:22.173Z,91456.03
2024-05-09T16:37:27.524Z,91455.81
2024-05-09T16:40:39.462Z,91451.69
2024-05-09T16:43:44.660Z,91447.66
2024-05-09T16:46:48.308Z,91448.16
2024-05-09T16:49:52.949Z,91441.47
2024-05-09T16:52:56.453Z,91448.59
2024-05-09T16:55:59.977Z,91460.16
2024-05-09T16:59:03.507Z,91463.00
2024-05-09T17:02:07.599Z,91472.50
2024-05-09T17:05:11.485Z,91483.22
2024-05-09T17:08:16.464Z,91484.03
2024-05-09T17:11:20.192Z,91485.97
2024-05-09T17:14:23.600Z,91483.59
2024-05-09T17:17:27.303Z,91485.25
2024-05-09T17:20:34.632Z,91485.00
2024-05-09T17:23:40.258Z,91493.81
2024-05-09T17:26:43.865Z,91502.16
2024-05-09T17:29:47.430Z,91500.63
2024-05-09T17:32:50.929Z,91501.72
2024-05-09T17:35:54.466Z,91511.34
2024-05-09T17:38:57.944Z,91511.16
2024-05-09T17:42:01.364Z,91508.34
2024-05-09T17:45:05.035Z,91510.41
2024-05-09T17:48:10.795Z,91512.97
2024-05-09T17:51:15.054Z,91517.59
2024-05-09T17:54:18.580Z,91517.50
2024-05-09T17:57:22.619Z,91525.59
2024-05-09T18:00:37.371Z,91531.50
2024-05-09T18:03:44.500Z,91528.81
2024-05-09T18:06:48.182Z,91523.34
2024-05-09T18:09:51.636Z,91524.88
2024-05-09T18:12:55.217Z,91520.72
2024-05-09T18:15:58.884Z,91529.00
2024-05-09T18:19:02.786Z,91530.19
2024-05-09T18:22:06.615Z,91517.44
2024-05-09T18:25:11.698Z,91525.59
2024-05-09T18:28:16.141Z,91526.78
2024-05-09T18:31:19.981Z,91527.94
2024-05-09T18:34:23.602Z,91524.63
2024-05-09T18:37:27.603Z,91535.53
2024-05-09T18:40:35.341Z,91540.44
2024-05-09T18:43:45.194Z,91538.31
2024-05-09T18:46:52.234Z,91547.22
2024-05-09T18:49:55.753Z,91544.84
2024-05-09T18:52:59.379Z,91546.28
2024-05-09T18:56:02.796Z,91539.38
2024-05-09T18:59:06.438Z,91546.22
2024-05-09T19:02:10.602Z,91556.25
2024-05-09T19:05:14.365Z,91562.44
2024-05-09T19:08:17.985Z,91581.16
2024-05-09T19:11:21.651Z,91572.78
2024-05-09T19:14:26.173Z,91565.22
2024-05-09T19:17:30.795Z,91547.75
2024-05-09T19:20:36.878Z,91554.59
2024-05-09T19:23:47.106Z,91561.41
2024-05-09T19:26:56.841Z,91566.53
2024-05-09T19:30:00.316Z,91572.78
2024-05-09T19:33:04.047Z,91568.41
2024-05-09T19:36:08.209Z,91566.53
2024-05-09T19:39:12.327Z,91567.53
2024-05-09T19:42:15.950Z,91579.22
2024-05-09T19:45:19.435Z,91580.31
2024-05-09T19:48:23.324Z,91585.13
2024-05-09T19:51:26.801Z,91582.66
2024-05-09T19:54:30.236Z,91582.22
2024-05-09T19:57:33.818Z,91576.09
2024-05-09T20:00:41.475Z,91578.91
2024-05-09T20:03:46.959Z,91585.06
2024-05-09T20:06:50.550Z,91586.00
2024-05-09T20:09:54.082Z,91590.31
2024-05-09T20:12:57.677Z,91591.13
2024-05-09T20:16:02.174Z,91590.72
2024-05-09T20:19:06.182Z,91592.19
2024-05-09T20:22:10.113Z,91600.81
2024-05-09T20:25:13.771Z,91608.81
2024-05-09T20:28:17.500Z,91611.47
2024-05-09T20:31:24.875Z,91614.28
2024-05-09T20:34:28.544Z,91616.91
2024-05-09T20:37:32.116Z,91626.66
2024-05-09T20:40:38.613Z,91632.03
2024-05-09T20:43:43.166Z,91626.78
2024-05-09T20:46:47.104Z,91639.06
2024-05-09T20:49:51.880Z,91640.31
2024-05-09T20:55:58.308Z,91640.53
2024-05-09T20:59:01.809Z,91630.97
2024-05-09T21:02:05.736Z,91654.09
2024-05-09T21:05:10.865Z,91656.63
2024-05-09T21:08:14.703Z,91666.00
2024-05-09T21:11:18.268Z,91674.13
2024-05-09T21:14:21.812Z,91672.91
2024-05-09T21:17:25.522Z,91678.19
2024-05-09T21:20:31.673Z,91680.19
2024-05-09T21:23:38.210Z,91688.78
2024-05-09T21:26:41.701Z,91682.28
2024-05-09T21:29:45.175Z,91689.06
2024-05-09T21:32:49.238Z,91712.81
2024-05-09T21:35:53.003Z,91714.38
2024-05-09T21:38:56.517Z,91728.63
2024-05-09T21:42:02.599Z,91735.59
2024-05-09T21:45:07.039Z,91738.59
2024-05-09T21:48:10.557Z,91735.63
2024-05-09T21:51:15.240Z,91747.59
2024-05-09T21:54:18.671Z,91747.97
2024-05-09T21:57:22.710Z,91756.09
2024-05-09T22:00:34.498Z,91756.34
2024-05-09T22:03:41.161Z,91755.91
2024-05-09T22:06:44.839Z,91755.50
2024-05-09T22:09:48.586Z,91766.91
2024-05-09T22:12:52.295Z,91762.59
2024-05-09T22:15:55.894Z,91761.53
2024-05-09T22:18:59.488Z,91769.56
2024-05-09T22:22:03.168Z,91766.47
2024-05-09T22:25:07.172Z,91771.16
2024-05-09T22:28:10.864Z,91763.47
2024-05-09T22:31:14.443Z,91766.81
2024-05-09T22:34:18.052Z,91765.66
2024-05-09T22:37:21.906Z,91759.91
2024-05-09T22:40:37.911Z,91758.72
2024-05-09T22:43:49.512Z,91760.16
2024-05-09T22:46:53.058Z,91759.56
2024-05-09T22:49:56.615Z,91761.59
2024-05-09T22:53:00.031Z,91761.00
2024-05-09T22:56:03.523Z,91759.75
2024-05-09T22:59:07.866Z,91755.31
2024-05-09T23:02:11.558Z,91755.97
2024-05-09T23:05:15.619Z,91763.19
2024-05-09T23:08:19.266Z,91758.66
2024-05-09T23:11:22.798Z,91766.47
2024-05-09T23:14:26.357Z,91774.25
2024-05-09T23:17:30.214Z,91771.66
2024-05-09T23:20:38.232Z,91760.66
2024-05-09T23:23:43.858Z,91773.66
2024-05-09T23:26:47.397Z,91761.31
2024-05-09T23:29:50.951Z,91763.31
2024-05-09T23:32:54.566Z,91756.81
2024-05-09T23:35:58.240Z,91751.63
2024-05-09T23:39:01.881Z,91758.16
2024-05-09T23:42:05.866Z,91760.09
2024-05-09T23:45:09.784Z,91752.28
2024-05-09T23:48:13.768Z,91755.56
2024-05-09T23:51:17.723Z,91755.63
2024-05-09T23:54:21.380Z,91755.63
2024-05-09T23:57:24.796Z,91757.63
